sensor_id;sensor_type;location;lat;lon;timestamp;temperature;humidity
8313;DHT22;4194;43.408;24.626;2024-01-30T00:01:45;1.60;99.90
8313;DHT22;4194;43.408;24.626;2024-01-30T00:04:11;1.60;99.90
8313;DHT22;4194;43.408;24.626;2024-01-30T00:06:37;1.60;99.90
8313;DHT22;4194;43.408;24.626;2024-01-30T00:09:02;1.60;99.90
8313;DHT22;4194;43.408;24.626;2024-01-30T00:11:28;1.60;99.90
8313;DHT22;4194;43.408;24.626;2024-01-30T00:13:54;1.70;99.90
8313;DHT22;4194;43.408;24.626;2024-01-30T00:16:25;1.80;99.90
8313;DHT22;4194;43.408;24.626;2024-01-30T00:18:51;1.60;99.90
8313;DHT22;4194;43.408;24.626;2024-01-30T00:21:18;2.10;99.90
8313;DHT22;4194;43.408;24.626;2024-01-30T00:23:44;1.90;99.90
8313;DHT22;4194;43.408;24.626;2024-01-30T00:26:09;1.60;99.90
8313;DHT22;4194;43.408;24.626;2024-01-30T00:28:35;1.70;99.90
8313;DHT22;4194;43.408;24.626;2024-01-30T00:31:01;1.60;99.90
8313;DHT22;4194;43.408;24.626;2024-01-30T00:33:26;1.60;99.90
8313;DHT22;4194;43.408;24.626;2024-01-30T00:35:52;1.90;99.90
8313;DHT22;4194;43.408;24.626;2024-01-30T00:38:18;2.00;99.90
8313;DHT22;4194;43.408;24.626;2024-01-30T00:40:43;1.80;99.90
8313;DHT22;4194;43.408;24.626;2024-01-30T00:43:09;1.60;99.90
8313;DHT22;4194;43.408;24.626;2024-01-30T00:45:35;1.50;99.90
8313;DHT22;4194;43.408;24.626;2024-01-30T00:48:01;1.60;99.90
8313;DHT22;4194;43.408;24.626;2024-01-30T00:50:26;2.00;99.90
8313;DHT22;4194;43.408;24.626;2024-01-30T00:52:52;1.50;99.90
8313;DHT22;4194;43.408;24.626;2024-01-30T00:55:18;1.50;99.90
8313;DHT22;4194;43.408;24.626;2024-01-30T00:57:43;1.50;99.90
8313;DHT22;4194;43.408;24.626;2024-01-30T01:00:09;1.50;99.90
8313;DHT22;4194;43.408;24.626;2024-01-30T01:02:36;1.50;99.90
8313;DHT22;4194;43.408;24.626;2024-01-30T01:05:02;1.50;99.90
8313;DHT22;4194;43.408;24.626;2024-01-30T01:07:28;1.50;99.90
8313;DHT22;4194;43.408;24.626;2024-01-30T01:09:53;1.40;99.90
8313;DHT22;4194;43.408;24.626;2024-01-30T01:12:19;1.50;99.90
8313;DHT22;4194;43.408;24.626;2024-01-30T01:14:45;1.80;99.90
8313;DHT22;4194;43.408;24.626;2024-01-30T01:17:10;1.60;99.90
8313;DHT22;4194;43.408;24.626;2024-01-30T01:19:36;1.80;99.90
8313;DHT22;4194;43.408;24.626;2024-01-30T01:22:02;1.40;99.90
8313;DHT22;4194;43.408;24.626;2024-01-30T01:24:30;1.60;99.90
8313;DHT22;4194;43.408;24.626;2024-01-30T01:26:56;1.60;99.90
8313;DHT22;4194;43.408;24.626;2024-01-30T01:29:22;1.50;99.90
8313;DHT22;4194;43.408;24.626;2024-01-30T01:31:54;1.70;99.90
8313;DHT22;4194;43.408;24.626;2024-01-30T01:34:20;1.60;99.90
8313;DHT22;4194;43.408;24.626;2024-01-30T01:36:46;1.60;99.90
8313;DHT22;4194;43.408;24.626;2024-01-30T01:39:11;1.50;99.90
8313;DHT22;4194;43.408;24.626;2024-01-30T01:41:37;1.60;99.90
8313;DHT22;4194;43.408;24.626;2024-01-30T01:44:02;1.10;99.90
8313;DHT22;4194;43.408;24.626;2024-01-30T01:46:30;1.80;99.90
8313;DHT22;4194;43.408;24.626;2024-01-30T01:48:58;1.50;99.90
8313;DHT22;4194;43.408;24.626;2024-01-30T01:51:27;2.00;99.90
8313;DHT22;4194;43.408;24.626;2024-01-30T01:53:57;1.40;99.90
8313;DHT22;4194;43.408;24.626;2024-01-30T01:56:25;1.40;99.90
8313;DHT22;4194;43.408;24.626;2024-01-30T01:58:54;1.40;99.90
8313;DHT22;4194;43.408;24.626;2024-01-30T02:01:21;1.60;99.90
8313;DHT22;4194;43.408;24.626;2024-01-30T02:03:47;1.80;99.90
8313;DHT22;4194;43.408;24.626;2024-01-30T02:06:14;1.60;99.90
8313;DHT22;4194;43.408;24.626;2024-01-30T02:08:40;1.40;99.90
8313;DHT22;4194;43.408;24.626;2024-01-30T02:11:07;1.30;99.90
8313;DHT22;4194;43.408;24.626;2024-01-30T02:13:32;1.40;99.90
8313;DHT22;4194;43.408;24.626;2024-01-30T02:15:58;1.40;99.90
8313;DHT22;4194;43.408;24.626;2024-01-30T02:18:24;1.30;99.90
8313;DHT22;4194;43.408;24.626;2024-01-30T02:20:51;1.70;99.90
8313;DHT22;4194;43.408;24.626;2024-01-30T02:23:19;1.40;99.90
8313;DHT22;4194;43.408;24.626;2024-01-30T02:25:45;1.40;99.90
8313;DHT22;4194;43.408;24.626;2024-01-30T02:28:14;1.40;99.90
8313;DHT22;4194;43.408;24.626;2024-01-30T02:30:40;1.40;99.90
8313;DHT22;4194;43.408;24.626;2024-01-30T02:33:06;1.40;99.90
8313;DHT22;4194;43.408;24.626;2024-01-30T02:35:32;1.40;99.90
8313;DHT22;4194;43.408;24.626;2024-01-30T02:37:58;1.60;99.90
8313;DHT22;4194;43.408;24.626;2024-01-30T02:40:24;1.40;99.90
8313;DHT22;4194;43.408;24.626;2024-01-30T02:42:50;1.40;99.90
8313;DHT22;4194;43.408;24.626;2024-01-30T02:45:15;1.00;99.90
8313;DHT22;4194;43.408;24.626;2024-01-30T02:47:41;1.30;99.90
8313;DHT22;4194;43.408;24.626;2024-01-30T02:50:07;1.40;99.90
8313;DHT22;4194;43.408;24.626;2024-01-30T02:52:33;1.40;99.90
8313;DHT22;4194;43.408;24.626;2024-01-30T02:54:59;1.40;99.90
8313;DHT22;4194;43.408;24.626;2024-01-30T02:57:24;1.20;99.90
8313;DHT22;4194;43.408;24.626;2024-01-30T02:59:50;1.20;99.90
8313;DHT22;4194;43.408;24.626;2024-01-30T03:02:16;1.30;99.90
8313;DHT22;4194;43.408;24.626;2024-01-30T03:04:42;1.50;99.90
8313;DHT22;4194;43.408;24.626;2024-01-30T03:07:08;1.90;99.90
8313;DHT22;4194;43.408;24.626;2024-01-30T03:09:34;1.50;99.90
8313;DHT22;4194;43.408;24.626;2024-01-30T03:11:59;1.70;99.90
8313;DHT22;4194;43.408;24.626;2024-01-30T03:14:25;1.40;99.90
8313;DHT22;4194;43.408;24.626;2024-01-30T03:16:50;1.40;99.90
8313;DHT22;4194;43.408;24.626;2024-01-30T03:19:16;1.40;99.90
8313;DHT22;4194;43.408;24.626;2024-01-30T03:21:42;1.40;99.90
8313;DHT22;4194;43.408;24.626;2024-01-30T03:24:08;1.20;99.90
8313;DHT22;4194;43.408;24.626;2024-01-30T03:26:34;1.70;99.90
8313;DHT22;4194;43.408;24.626;2024-01-30T03:29:00;1.90;99.90
8313;DHT22;4194;43.408;24.626;2024-01-30T03:31:25;1.90;99.90
8313;DHT22;4194;43.408;24.626;2024-01-30T03:33:51;1.40;99.90
8313;DHT22;4194;43.408;24.626;2024-01-30T03:36:17;1.90;99.90
8313;DHT22;4194;43.408;24.626;2024-01-30T03:38:42;1.80;99.90
8313;DHT22;4194;43.408;24.626;2024-01-30T03:41:08;1.80;99.90
8313;DHT22;4194;43.408;24.626;2024-01-30T03:43:37;1.50;99.90
8313;DHT22;4194;43.408;24.626;2024-01-30T03:46:03;1.30;99.90
8313;DHT22;4194;43.408;24.626;2024-01-30T03:48:29;1.50;99.90
8313;DHT22;4194;43.408;24.626;2024-01-30T03:50:55;1.50;99.90
8313;DHT22;4194;43.408;24.626;2024-01-30T03:53:21;1.70;99.90
8313;DHT22;4194;43.408;24.626;2024-01-30T03:55:47;1.70;99.90
8313;DHT22;4194;43.408;24.626;2024-01-30T03:58:12;1.50;99.90
8313;DHT22;4194;43.408;24.626;2024-01-30T04:00:38;1.90;99.90
8313;DHT22;4194;43.408;24.626;2024-01-30T04:03:04;1.40;99.90
8313;DHT22;4194;43.408;24.626;2024-01-30T04:05:30;1.50;99.90
8313;DHT22;4194;43.408;24.626;2024-01-30T04:07:56;1.40;99.90
8313;DHT22;4194;43.408;24.626;2024-01-30T04:10:22;1.10;99.90
8313;DHT22;4194;43.408;24.626;2024-01-30T04:12:48;1.10;99.90
8313;DHT22;4194;43.408;24.626;2024-01-30T04:15:14;1.50;99.90
8313;DHT22;4194;43.408;24.626;2024-01-30T04:17:40;1.40;99.90
8313;DHT22;4194;43.408;24.626;2024-01-30T04:20:06;1.30;99.90
8313;DHT22;4194;43.408;24.626;2024-01-30T04:22:32;1.30;99.90
8313;DHT22;4194;43.408;24.626;2024-01-30T04:24:57;1.70;99.90
8313;DHT22;4194;43.408;24.626;2024-01-30T04:27:23;1.80;99.90
8313;DHT22;4194;43.408;24.626;2024-01-30T04:29:49;1.30;99.90
8313;DHT22;4194;43.408;24.626;2024-01-30T04:32:14;1.20;99.90
8313;DHT22;4194;43.408;24.626;2024-01-30T04:34:40;1.50;99.90
8313;DHT22;4194;43.408;24.626;2024-01-30T04:37:06;1.30;99.90
8313;DHT22;4194;43.408;24.626;2024-01-30T04:39:33;1.50;99.90
8313;DHT22;4194;43.408;24.626;2024-01-30T04:41:59;0.80;99.90
8313;DHT22;4194;43.408;24.626;2024-01-30T04:44:25;1.20;99.90
8313;DHT22;4194;43.408;24.626;2024-01-30T04:46:50;1.20;99.90
8313;DHT22;4194;43.408;24.626;2024-01-30T04:49:16;0.90;99.90
8313;DHT22;4194;43.408;24.626;2024-01-30T04:51:41;1.00;99.90
8313;DHT22;4194;43.408;24.626;2024-01-30T04:54:07;1.20;99.90
8313;DHT22;4194;43.408;24.626;2024-01-30T04:56:33;1.10;99.90
8313;DHT22;4194;43.408;24.626;2024-01-30T04:58:59;1.30;99.90
8313;DHT22;4194;43.408;24.626;2024-01-30T05:01:25;1.30;99.90
8313;DHT22;4194;43.408;24.626;2024-01-30T05:03:51;1.10;99.90
8313;DHT22;4194;43.408;24.626;2024-01-30T05:06:29;1.70;99.90
8313;DHT22;4194;43.408;24.626;2024-01-30T05:08:55;1.00;99.90
8313;DHT22;4194;43.408;24.626;2024-01-30T05:11:21;1.10;99.90
8313;DHT22;4194;43.408;24.626;2024-01-30T05:13:47;1.20;99.90
8313;DHT22;4194;43.408;24.626;2024-01-30T05:16:13;1.10;99.90
8313;DHT22;4194;43.408;24.626;2024-01-30T05:18:39;1.30;99.90
8313;DHT22;4194;43.408;24.626;2024-01-30T05:21:05;1.50;99.90
8313;DHT22;4194;43.408;24.626;2024-01-30T05:23:31;1.20;99.90
8313;DHT22;4194;43.408;24.626;2024-01-30T05:25:57;1.50;99.90
8313;DHT22;4194;43.408;24.626;2024-01-30T05:28:22;1.30;99.90
8313;DHT22;4194;43.408;24.626;2024-01-30T05:30:48;1.50;99.90
8313;DHT22;4194;43.408;24.626;2024-01-30T05:33:14;1.50;99.90
8313;DHT22;4194;43.408;24.626;2024-01-30T05:35:40;1.20;99.90
8313;DHT22;4194;43.408;24.626;2024-01-30T05:38:05;1.10;99.90
8313;DHT22;4194;43.408;24.626;2024-01-30T05:40:31;1.10;99.90
8313;DHT22;4194;43.408;24.626;2024-01-30T05:42:57;1.50;99.90
8313;DHT22;4194;43.408;24.626;2024-01-30T05:45:26;1.20;99.90
8313;DHT22;4194;43.408;24.626;2024-01-30T05:47:53;0.60;99.90
8313;DHT22;4194;43.408;24.626;2024-01-30T05:50:19;1.20;99.90
8313;DHT22;4194;43.408;24.626;2024-01-30T05:52:45;1.10;99.90
8313;DHT22;4194;43.408;24.626;2024-01-30T05:55:11;1.20;99.90
8313;DHT22;4194;43.408;24.626;2024-01-30T05:57:38;1.10;99.90
8313;DHT22;4194;43.408;24.626;2024-01-30T06:00:07;0.90;99.90
8313;DHT22;4194;43.408;24.626;2024-01-30T06:02:34;1.20;99.90
8313;DHT22;4194;43.408;24.626;2024-01-30T06:04:59;0.80;99.90
8313;DHT22;4194;43.408;24.626;2024-01-30T06:07:25;1.20;99.90
8313;DHT22;4194;43.408;24.626;2024-01-30T06:09:51;1.00;99.90
8313;DHT22;4194;43.408;24.626;2024-01-30T06:12:16;1.10;99.90
8313;DHT22;4194;43.408;24.626;2024-01-30T06:14:42;1.40;99.90
8313;DHT22;4194;43.408;24.626;2024-01-30T06:17:08;1.40;99.90
8313;DHT22;4194;43.408;24.626;2024-01-30T06:19:34;1.40;99.90
8313;DHT22;4194;43.408;24.626;2024-01-30T06:22:00;1.50;99.90
8313;DHT22;4194;43.408;24.626;2024-01-30T06:24:26;1.40;99.90
8313;DHT22;4194;43.408;24.626;2024-01-30T06:26:53;1.40;99.90
8313;DHT22;4194;43.408;24.626;2024-01-30T06:29:18;1.40;99.90
8313;DHT22;4194;43.408;24.626;2024-01-30T06:31:44;1.00;99.90
8313;DHT22;4194;43.408;24.626;2024-01-30T06:34:10;1.50;99.90
8313;DHT22;4194;43.408;24.626;2024-01-30T06:36:37;1.50;99.90
8313;DHT22;4194;43.408;24.626;2024-01-30T06:39:03;1.60;99.90
8313;DHT22;4194;43.408;24.626;2024-01-30T06:41:29;1.60;99.90
8313;DHT22;4194;43.408;24.626;2024-01-30T06:43:58;1.40;99.90
8313;DHT22;4194;43.408;24.626;2024-01-30T06:46:24;2.10;99.90
8313;DHT22;4194;43.408;24.626;2024-01-30T06:48:49;2.00;99.90
8313;DHT22;4194;43.408;24.626;2024-01-30T06:51:15;1.90;99.90
8313;DHT22;4194;43.408;24.626;2024-01-30T06:53:40;2.00;99.90
8313;DHT22;4194;43.408;24.626;2024-01-30T06:56:06;2.00;99.90
8313;DHT22;4194;43.408;24.626;2024-01-30T06:58:32;1.90;99.90
8313;DHT22;4194;43.408;24.626;2024-01-30T07:00:58;2.00;99.90
8313;DHT22;4194;43.408;24.626;2024-01-30T07:03:24;2.00;99.90
8313;DHT22;4194;43.408;24.626;2024-01-30T07:05:50;2.00;99.90
8313;DHT22;4194;43.408;24.626;2024-01-30T07:08:16;2.00;99.90
8313;DHT22;4194;43.408;24.626;2024-01-30T07:10:43;2.00;99.90
8313;DHT22;4194;43.408;24.626;2024-01-30T07:13:09;2.00;99.90
8313;DHT22;4194;43.408;24.626;2024-01-30T07:15:35;2.10;99.90
8313;DHT22;4194;43.408;24.626;2024-01-30T07:18:02;2.20;99.90
8313;DHT22;4194;43.408;24.626;2024-01-30T07:20:28;2.20;99.90
8313;DHT22;4194;43.408;24.626;2024-01-30T07:22:56;2.30;99.90
8313;DHT22;4194;43.408;24.626;2024-01-30T07:25:21;2.30;99.90
8313;DHT22;4194;43.408;24.626;2024-01-30T07:27:52;1.90;99.90
8313;DHT22;4194;43.408;24.626;2024-01-30T07:30:18;1.90;99.90
8313;DHT22;4194;43.408;24.626;2024-01-30T07:32:44;2.60;99.90
8313;DHT22;4194;43.408;24.626;2024-01-30T07:35:10;2.40;99.90
8313;DHT22;4194;43.408;24.626;2024-01-30T07:37:36;2.50;99.90
8313;DHT22;4194;43.408;24.626;2024-01-30T07:40:03;2.40;99.90
8313;DHT22;4194;43.408;24.626;2024-01-30T07:42:29;2.40;99.90
8313;DHT22;4194;43.408;24.626;2024-01-30T07:44:54;2.50;99.90
8313;DHT22;4194;43.408;24.626;2024-01-30T07:47:20;2.60;99.90
8313;DHT22;4194;43.408;24.626;2024-01-30T07:49:46;2.70;99.90
8313;DHT22;4194;43.408;24.626;2024-01-30T07:52:13;3.00;99.90
8313;DHT22;4194;43.408;24.626;2024-01-30T07:54:48;2.70;99.90
8313;DHT22;4194;43.408;24.626;2024-01-30T07:57:13;2.70;99.90
8313;DHT22;4194;43.408;24.626;2024-01-30T07:59:41;3.00;99.90
8313;DHT22;4194;43.408;24.626;2024-01-30T08:02:07;3.00;99.90
8313;DHT22;4194;43.408;24.626;2024-01-30T08:04:33;3.20;99.90
8313;DHT22;4194;43.408;24.626;2024-01-30T08:06:59;3.00;99.90
8313;DHT22;4194;43.408;24.626;2024-01-30T08:09:24;3.10;99.90
8313;DHT22;4194;43.408;24.626;2024-01-30T08:11:50;3.10;99.90
8313;DHT22;4194;43.408;24.626;2024-01-30T08:14:16;2.90;99.90
8313;DHT22;4194;43.408;24.626;2024-01-30T08:16:41;3.00;99.80
8313;DHT22;4194;43.408;24.626;2024-01-30T08:19:07;3.20;99.70
8313;DHT22;4194;43.408;24.626;2024-01-30T08:21:32;3.20;99.90
8313;DHT22;4194;43.408;24.626;2024-01-30T08:24:03;3.70;99.90
8313;DHT22;4194;43.408;24.626;2024-01-30T08:26:30;3.30;99.40
8313;DHT22;4194;43.408;24.626;2024-01-30T08:28:56;3.10;99.90
8313;DHT22;4194;43.408;24.626;2024-01-30T08:31:21;3.30;99.90
8313;DHT22;4194;43.408;24.626;2024-01-30T08:33:47;3.80;99.90
8313;DHT22;4194;43.408;24.626;2024-01-30T08:36:13;3.30;99.30
8313;DHT22;4194;43.408;24.626;2024-01-30T08:38:39;3.40;99.00
8313;DHT22;4194;43.408;24.626;2024-01-30T08:41:05;3.50;98.90
8313;DHT22;4194;43.408;24.626;2024-01-30T08:43:31;3.40;99.20
8313;DHT22;4194;43.408;24.626;2024-01-30T08:45:59;3.30;97.20
8313;DHT22;4194;43.408;24.626;2024-01-30T08:48:25;4.00;97.00
8313;DHT22;4194;43.408;24.626;2024-01-30T08:50:51;3.60;96.70
8313;DHT22;4194;43.408;24.626;2024-01-30T08:53:16;3.70;96.40
8313;DHT22;4194;43.408;24.626;2024-01-30T08:55:42;3.80;96.90
8313;DHT22;4194;43.408;24.626;2024-01-30T08:58:08;4.20;96.80
8313;DHT22;4194;43.408;24.626;2024-01-30T09:00:35;3.70;96.40
8313;DHT22;4194;43.408;24.626;2024-01-30T09:03:00;3.90;97.00
8313;DHT22;4194;43.408;24.626;2024-01-30T09:05:26;4.00;96.40
8313;DHT22;4194;43.408;24.626;2024-01-30T09:07:52;4.30;97.00
8313;DHT22;4194;43.408;24.626;2024-01-30T09:10:17;4.50;97.00
8313;DHT22;4194;43.408;24.626;2024-01-30T09:12:43;4.00;96.00
8313;DHT22;4194;43.408;24.626;2024-01-30T09:15:09;4.50;94.90
8313;DHT22;4194;43.408;24.626;2024-01-30T09:17:35;4.50;94.30
8313;DHT22;4194;43.408;24.626;2024-01-30T09:20:00;4.50;94.40
8313;DHT22;4194;43.408;24.626;2024-01-30T09:22:26;4.70;93.70
8313;DHT22;4194;43.408;24.626;2024-01-30T09:24:52;5.10;93.40
8313;DHT22;4194;43.408;24.626;2024-01-30T09:27:17;5.90;93.80
8313;DHT22;4194;43.408;24.626;2024-01-30T09:29:43;4.70;93.20
8313;DHT22;4194;43.408;24.626;2024-01-30T09:32:09;4.70;93.20
8313;DHT22;4194;43.408;24.626;2024-01-30T09:34:35;4.80;93.10
8313;DHT22;4194;43.408;24.626;2024-01-30T09:37:00;4.80;93.40
8313;DHT22;4194;43.408;24.626;2024-01-30T09:39:26;5.00;93.00
8313;DHT22;4194;43.408;24.626;2024-01-30T09:42:30;4.70;92.80
8313;DHT22;4194;43.408;24.626;2024-01-30T09:44:58;4.90;93.10
8313;DHT22;4194;43.408;24.626;2024-01-30T09:47:24;5.20;92.20
8313;DHT22;4194;43.408;24.626;2024-01-30T09:49:51;5.30;91.50
8313;DHT22;4194;43.408;24.626;2024-01-30T09:52:17;5.30;91.20
8313;DHT22;4194;43.408;24.626;2024-01-30T09:54:45;5.40;90.80
8313;DHT22;4194;43.408;24.626;2024-01-30T09:57:11;5.40;90.70
8313;DHT22;4194;43.408;24.626;2024-01-30T09:59:37;5.50;91.10
8313;DHT22;4194;43.408;24.626;2024-01-30T10:02:03;5.50;90.30
8313;DHT22;4194;43.408;24.626;2024-01-30T10:04:30;5.40;89.90
8313;DHT22;4194;43.408;24.626;2024-01-30T10:06:56;5.40;89.00
8313;DHT22;4194;43.408;24.626;2024-01-30T10:09:24;5.50;87.40
8313;DHT22;4194;43.408;24.626;2024-01-30T10:11:51;5.50;87.50
8313;DHT22;4194;43.408;24.626;2024-01-30T10:14:17;5.60;87.20
8313;DHT22;4194;43.408;24.626;2024-01-30T10:16:42;5.60;87.20
8313;DHT22;4194;43.408;24.626;2024-01-30T10:19:10;5.70;86.60
8313;DHT22;4194;43.408;24.626;2024-01-30T10:21:36;5.80;84.90
8313;DHT22;4194;43.408;24.626;2024-01-30T10:24:02;6.30;85.40
8313;DHT22;4194;43.408;24.626;2024-01-30T10:26:28;5.70;85.40
8313;DHT22;4194;43.408;24.626;2024-01-30T10:28:55;5.80;83.60
8313;DHT22;4194;43.408;24.626;2024-01-30T10:31:20;5.30;85.00
8313;DHT22;4194;43.408;24.626;2024-01-30T10:33:46;5.40;85.30
8313;DHT22;4194;43.408;24.626;2024-01-30T10:36:13;5.30;86.50
8313;DHT22;4194;43.408;24.626;2024-01-30T10:38:42;5.40;87.20
8313;DHT22;4194;43.408;24.626;2024-01-30T10:41:08;5.60;87.00
8313;DHT22;4194;43.408;24.626;2024-01-30T10:43:41;5.40;85.00
8313;DHT22;4194;43.408;24.626;2024-01-30T10:46:17;4.90;84.90
8313;DHT22;4194;43.408;24.626;2024-01-30T10:48:50;5.00;87.20
8313;DHT22;4194;43.408;24.626;2024-01-30T10:51:16;5.10;87.40
8313;DHT22;4194;43.408;24.626;2024-01-30T10:53:46;5.20;87.70
8313;DHT22;4194;43.408;24.626;2024-01-30T10:56:14;5.60;88.60
8313;DHT22;4194;43.408;24.626;2024-01-30T10:58:41;5.40;88.10
8313;DHT22;4194;43.408;24.626;2024-01-30T11:01:07;5.50;86.40
8313;DHT22;4194;43.408;24.626;2024-01-30T11:03:34;5.50;86.40
8313;DHT22;4194;43.408;24.626;2024-01-30T11:06:02;5.20;85.50
8313;DHT22;4194;43.408;24.626;2024-01-30T11:08:28;5.50;85.10
8313;DHT22;4194;43.408;24.626;2024-01-30T11:10:58;5.30;85.40
8313;DHT22;4194;43.408;24.626;2024-01-30T11:13:30;5.70;86.10
8313;DHT22;4194;43.408;24.626;2024-01-30T11:16:05;5.60;84.60
8313;DHT22;4194;43.408;24.626;2024-01-30T11:18:32;5.50;84.40
8313;DHT22;4194;43.408;24.626;2024-01-30T11:20:59;5.50;84.10
8313;DHT22;4194;43.408;24.626;2024-01-30T11:23:27;5.50;84.10
8313;DHT22;4194;43.408;24.626;2024-01-30T11:25:54;5.40;82.40
8313;DHT22;4194;43.408;24.626;2024-01-30T11:28:21;5.30;82.00
8313;DHT22;4194;43.408;24.626;2024-01-30T11:30:47;5.40;83.30
8313;DHT22;4194;43.408;24.626;2024-01-30T11:33:29;5.50;81.20
8313;DHT22;4194;43.408;24.626;2024-01-30T11:35:57;5.50;79.20
8313;DHT22;4194;43.408;24.626;2024-01-30T11:38:26;5.40;78.70
8313;DHT22;4194;43.408;24.626;2024-01-30T11:40:54;5.50;81.20
8313;DHT22;4194;43.408;24.626;2024-01-30T11:43:20;5.80;80.10
8313;DHT22;4194;43.408;24.626;2024-01-30T11:45:45;5.40;79.80
8313;DHT22;4194;43.408;24.626;2024-01-30T11:48:12;5.60;80.20
8313;DHT22;4194;43.408;24.626;2024-01-30T11:50:39;5.60;79.40
8313;DHT22;4194;43.408;24.626;2024-01-30T11:53:06;5.20;77.90
8313;DHT22;4194;43.408;24.626;2024-01-30T11:55:32;5.40;79.30
8313;DHT22;4194;43.408;24.626;2024-01-30T11:57:58;5.50;80.60
8313;DHT22;4194;43.408;24.626;2024-01-30T12:00:25;5.50;81.30
8313;DHT22;4194;43.408;24.626;2024-01-30T12:02:52;5.50;81.30
8313;DHT22;4194;43.408;24.626;2024-01-30T12:05:21;5.80;80.10
8313;DHT22;4194;43.408;24.626;2024-01-30T12:07:47;5.60;78.80
8313;DHT22;4194;43.408;24.626;2024-01-30T12:10:14;5.60;79.20
8313;DHT22;4194;43.408;24.626;2024-01-30T12:12:41;5.80;78.40
8313;DHT22;4194;43.408;24.626;2024-01-30T12:15:08;5.90;77.80
8313;DHT22;4194;43.408;24.626;2024-01-30T12:17:34;5.80;78.00
8313;DHT22;4194;43.408;24.626;2024-01-30T12:20:14;5.70;77.80
8313;DHT22;4194;43.408;24.626;2024-01-30T12:22:45;6.10;78.00
8313;DHT22;4194;43.408;24.626;2024-01-30T12:25:20;5.40;76.60
8313;DHT22;4194;43.408;24.626;2024-01-30T12:27:50;5.50;77.80
8313;DHT22;4194;43.408;24.626;2024-01-30T12:30:17;5.40;78.60
8313;DHT22;4194;43.408;24.626;2024-01-30T12:32:44;5.40;79.20
8313;DHT22;4194;43.408;24.626;2024-01-30T12:35:11;5.40;80.00
8313;DHT22;4194;43.408;24.626;2024-01-30T12:37:37;5.30;78.50
8313;DHT22;4194;43.408;24.626;2024-01-30T12:40:04;5.50;77.70
8313;DHT22;4194;43.408;24.626;2024-01-30T12:42:30;5.80;78.30
8313;DHT22;4194;43.408;24.626;2024-01-30T12:44:57;5.40;78.30
8313;DHT22;4194;43.408;24.626;2024-01-30T12:47:24;5.50;77.80
8313;DHT22;4194;43.408;24.626;2024-01-30T12:49:50;5.60;77.20
8313;DHT22;4194;43.408;24.626;2024-01-30T12:52:19;5.70;77.00
8313;DHT22;4194;43.408;24.626;2024-01-30T12:54:46;6.00;75.60
8313;DHT22;4194;43.408;24.626;2024-01-30T12:57:11;5.70;75.70
8313;DHT22;4194;43.408;24.626;2024-01-30T12:59:37;5.60;74.70
8313;DHT22;4194;43.408;24.626;2024-01-30T13:02:03;5.50;74.80
8313;DHT22;4194;43.408;24.626;2024-01-30T13:04:29;5.50;76.00
8313;DHT22;4194;43.408;24.626;2024-01-30T13:06:55;5.60;76.50
8313;DHT22;4194;43.408;24.626;2024-01-30T13:09:21;5.70;76.10
8313;DHT22;4194;43.408;24.626;2024-01-30T13:11:46;5.80;75.60
8313;DHT22;4194;43.408;24.626;2024-01-30T13:14:12;6.00;76.10
8313;DHT22;4194;43.408;24.626;2024-01-30T13:16:38;5.90;73.70
8313;DHT22;4194;43.408;24.626;2024-01-30T13:19:03;6.00;74.40
8313;DHT22;4194;43.408;24.626;2024-01-30T13:21:29;6.00;74.50
8313;DHT22;4194;43.408;24.626;2024-01-30T13:23:55;5.80;73.70
8313;DHT22;4194;43.408;24.626;2024-01-30T13:26:21;6.30;73.90
8313;DHT22;4194;43.408;24.626;2024-01-30T13:28:47;6.00;74.00
8313;DHT22;4194;43.408;24.626;2024-01-30T13:31:14;6.00;74.60
8313;DHT22;4194;43.408;24.626;2024-01-30T13:33:40;5.70;75.80
8313;DHT22;4194;43.408;24.626;2024-01-30T13:36:07;5.50;76.60
8313;DHT22;4194;43.408;24.626;2024-01-30T13:38:33;5.20;78.90
8313;DHT22;4194;43.408;24.626;2024-01-30T13:40:59;5.10;79.00
8313;DHT22;4194;43.408;24.626;2024-01-30T13:43:25;4.90;78.70
8313;DHT22;4194;43.408;24.626;2024-01-30T13:45:51;4.80;79.00
8313;DHT22;4194;43.408;24.626;2024-01-30T13:48:17;4.90;79.50
8313;DHT22;4194;43.408;24.626;2024-01-30T13:50:43;4.70;80.00
8313;DHT22;4194;43.408;24.626;2024-01-30T13:53:09;4.90;80.40
8313;DHT22;4194;43.408;24.626;2024-01-30T13:55:35;4.60;80.20
8313;DHT22;4194;43.408;24.626;2024-01-30T13:58:00;4.90;80.10
8313;DHT22;4194;43.408;24.626;2024-01-30T14:00:29;4.50;80.30
8313;DHT22;4194;43.408;24.626;2024-01-30T14:02:55;4.20;81.30
8313;DHT22;4194;43.408;24.626;2024-01-30T14:05:21;4.80;81.70
8313;DHT22;4194;43.408;24.626;2024-01-30T14:07:47;3.80;81.10
8313;DHT22;4194;43.408;24.626;2024-01-30T14:10:13;4.30;82.70
8313;DHT22;4194;43.408;24.626;2024-01-30T14:12:39;4.60;83.00
8313;DHT22;4194;43.408;24.626;2024-01-30T14:15:06;4.10;82.40
8313;DHT22;4194;43.408;24.626;2024-01-30T14:17:32;4.20;82.80
8313;DHT22;4194;43.408;24.626;2024-01-30T14:19:58;4.20;82.90
8313;DHT22;4194;43.408;24.626;2024-01-30T14:22:24;4.40;84.80
8313;DHT22;4194;43.408;24.626;2024-01-30T14:24:49;4.20;83.50
8313;DHT22;4194;43.408;24.626;2024-01-30T14:27:15;4.20;82.40
8313;DHT22;4194;43.408;24.626;2024-01-30T14:29:40;4.20;81.90
8313;DHT22;4194;43.408;24.626;2024-01-30T14:32:07;4.20;82.40
8313;DHT22;4194;43.408;24.626;2024-01-30T14:34:33;4.30;81.40
8313;DHT22;4194;43.408;24.626;2024-01-30T14:36:59;4.30;81.50
8313;DHT22;4194;43.408;24.626;2024-01-30T14:39:24;4.40;82.00
8313;DHT22;4194;43.408;24.626;2024-01-30T14:41:50;4.30;81.20
8313;DHT22;4194;43.408;24.626;2024-01-30T14:44:16;4.20;81.00
8313;DHT22;4194;43.408;24.626;2024-01-30T14:46:42;4.20;79.80
8313;DHT22;4194;43.408;24.626;2024-01-30T14:49:07;4.20;80.40
8313;DHT22;4194;43.408;24.626;2024-01-30T14:51:35;4.40;79.10
8313;DHT22;4194;43.408;24.626;2024-01-30T14:54:01;4.30;79.00
8313;DHT22;4194;43.408;24.626;2024-01-30T14:56:27;4.10;77.50
8313;DHT22;4194;43.408;24.626;2024-01-30T14:58:53;4.10;77.10
8313;DHT22;4194;43.408;24.626;2024-01-30T15:01:19;4.20;77.70
8313;DHT22;4194;43.408;24.626;2024-01-30T15:03:44;4.20;80.00
8313;DHT22;4194;43.408;24.626;2024-01-30T15:06:12;4.00;81.50
8313;DHT22;4194;43.408;24.626;2024-01-30T15:08:38;3.80;82.30
8313;DHT22;4194;43.408;24.626;2024-01-30T15:11:04;3.80;82.90
8313;DHT22;4194;43.408;24.626;2024-01-30T15:13:30;3.90;83.50
8313;DHT22;4194;43.408;24.626;2024-01-30T15:15:56;3.90;84.90
8313;DHT22;4194;43.408;24.626;2024-01-30T15:18:22;4.00;85.50
8313;DHT22;4194;43.408;24.626;2024-01-30T15:20:49;3.80;86.40
8313;DHT22;4194;43.408;24.626;2024-01-30T15:23:15;4.10;87.90
8313;DHT22;4194;43.408;24.626;2024-01-30T15:25:41;3.70;88.20
8313;DHT22;4194;43.408;24.626;2024-01-30T15:28:07;3.50;88.10
8313;DHT22;4194;43.408;24.626;2024-01-30T15:30:35;3.70;88.20
8313;DHT22;4194;43.408;24.626;2024-01-30T15:33:00;3.90;88.50
8313;DHT22;4194;43.408;24.626;2024-01-30T15:35:27;3.70;89.60
8313;DHT22;4194;43.408;24.626;2024-01-30T15:37:53;3.50;90.00
8313;DHT22;4194;43.408;24.626;2024-01-30T15:40:19;3.60;90.10
8313;DHT22;4194;43.408;24.626;2024-01-30T15:42:45;3.50;90.30
8313;DHT22;4194;43.408;24.626;2024-01-30T15:45:11;3.40;90.60
8313;DHT22;4194;43.408;24.626;2024-01-30T15:47:36;2.90;90.60
8313;DHT22;4194;43.408;24.626;2024-01-30T15:50:03;3.40;90.80
8313;DHT22;4194;43.408;24.626;2024-01-30T15:52:29;3.20;90.80
8313;DHT22;4194;43.408;24.626;2024-01-30T15:54:55;3.60;91.00
8313;DHT22;4194;43.408;24.626;2024-01-30T15:57:21;3.50;91.20